메인 페이지
METAR-TAF:

METAR-TAF

공항 :

Del Rio, 텍사스, 미국

위도: 29-07-00N, 경도: 100-28-00W, 고도: 294m

현재 날씨관측

예보는 26분 전, 12:55시(UTC)에 발표되었습니다.
동남동14kt
온도 27°C
습도 84%
기압 1006 hPa
시정: 16.1km
고도 1100ft 상공 흐림

METAR: KDLF 251255Z AUTO 11014KT 10SM OVC011 27/24 A2972 RMK AO2 SLP048 T02730239 $

시각: 08:21 (13:21 UTC)

예보

예보는 14 시간 21분 전, 23:00시(UTC)에 발표되었습니다.
예보 대상 시간: 23일 23시부터 25일 01시까지 (UTC)
여러 방향의 바람 6kt
시정 10km 이상
고도 15000ft 상공 구름 조금
전환 중
24일 10시부터 24일 11시까지 (UTC)
동남동10kt
시정 10km 이상
고도 1800ft 상공 구름 많음
일시적
24일 12시부터 24일 16시까지 (UTC)
시정: 8000m
고도 900ft 상공 구름 많음
약한이슬비
전환 중
24일 17시부터 24일 18시까지 (UTC)
남동12kt
시정: 2811m
고도 2500ft 상공 구름 보통

TAF: KDLF 232300Z 2323/2501 VRB06KT 9999 FEW150 QNH2959INS BECMG 2410/2411 11010KT 9999 BKN018 QNH2967INS TEMPO 2412/2416 8000 -DZ BKN009 BECMG 2417/2418 14012KT 9999 SCT025 QNH2970INS TX38/2323Z TN24/2411Z LAST NO AMDS AFT 2323 NEXT 2811

4,000개 이상의 공항 관측 자료 및 예보 (METAR 및 TAF 보고).

지도상에서 검색 가능한 기상관측소가 노란 점과 빨간 점으로 표시되어 있습니다.

기상관측소 명을 보려면 표시 위로 마우스를 이동하세요.

날씨 관측과 예보를 보려면 클릭하세요.

지도 변경 : 확대하려면 엑스 표시가 있는 녹색 버튼, 축소하려면 빼기 표시가 있는 녹색 버튼, 다음 페이지의 지도를 보려면 녹색 화살표를 클릭하세요.


METAR-TAF: